createdAt,value
2023-05-03T00:01:35.720Z,2.10
2023-05-03T00:04:03.827Z,2.47
2023-05-03T00:06:33.234Z,2.33
2023-05-03T00:09:02.360Z,2.20
2023-05-03T00:11:30.739Z,2.50
2023-05-03T00:13:58.749Z,2.33
2023-05-03T00:16:26.749Z,2.30
2023-05-03T00:18:54.720Z,2.07
2023-05-03T00:21:23.155Z,2.50
2023-05-03T00:23:52.483Z,2.60
2023-05-03T00:26:20.693Z,2.43
2023-05-03T00:28:48.681Z,2.60
2023-05-03T00:31:16.735Z,2.57
2023-05-03T00:33:44.869Z,2.43
2023-05-03T00:36:14.527Z,2.17
2023-05-03T00:38:43.938Z,2.37
2023-05-03T00:41:13.797Z,2.50
2023-05-03T00:43:41.825Z,2.60
2023-05-03T00:46:17.372Z,3.03
2023-05-03T00:48:46.344Z,2.70
2023-05-03T00:51:16.704Z,2.37
2023-05-03T00:53:45.166Z,2.63
2023-05-03T00:56:19.678Z,2.80
2023-05-03T00:58:47.811Z,3.07
2023-05-03T01:01:16.573Z,2.63
2023-05-03T01:03:46.480Z,2.67
2023-05-03T01:06:22.473Z,3.00
2023-05-03T01:08:59.688Z,2.73
2023-05-03T01:11:38.913Z,2.83
2023-05-03T01:14:13.421Z,2.87
2023-05-03T01:16:45.100Z,3.20
2023-05-03T01:19:23.408Z,3.40
2023-05-03T01:22:00.871Z,2.90
2023-05-03T01:24:33.169Z,3.20
2023-05-03T01:27:02.576Z,2.67
2023-05-03T01:29:30.759Z,3.30
2023-05-03T01:32:02.597Z,2.80
2023-05-03T01:34:38.976Z,3.23
2023-05-03T01:37:10.529Z,3.40
2023-05-03T01:39:44.958Z,3.00
2023-05-03T01:42:16.987Z,3.00
2023-05-03T01:44:46.837Z,2.97
2023-05-03T01:47:16.023Z,3.53
2023-05-03T01:49:44.056Z,3.27
2023-05-03T01:52:12.022Z,3.40
2023-05-03T01:54:39.994Z,3.33
2023-05-03T01:57:07.943Z,3.07
2023-05-03T01:59:37.732Z,3.23
2023-05-03T02:02:05.744Z,3.70
2023-05-03T02:04:33.765Z,3.70
2023-05-03T02:07:01.773Z,3.57
2023-05-03T02:09:29.751Z,3.40
2023-05-03T02:11:57.728Z,3.90
2023-05-03T02:14:25.770Z,3.27
2023-05-03T02:16:55.961Z,3.67
2023-05-03T02:19:26.393Z,3.53
2023-05-03T02:21:54.521Z,3.67
2023-05-03T02:24:23.487Z,3.33
2023-05-03T02:26:51.515Z,3.13
2023-05-03T02:29:19.827Z,3.23
2023-05-03T02:31:47.818Z,3.17
2023-05-03T02:34:17.136Z,3.40
2023-05-03T02:36:45.073Z,3.00
2023-05-03T02:39:13.043Z,3.10
2023-05-03T02:41:41.607Z,3.20
2023-05-03T02:44:09.646Z,3.00
2023-05-03T02:46:37.594Z,3.13
2023-05-03T02:49:05.539Z,2.87
2023-05-03T02:51:35.019Z,3.00
2023-05-03T02:54:03.403Z,2.97
2023-05-03T02:56:31.604Z,2.67
2023-05-03T02:58:59.524Z,2.80
2023-05-03T03:01:28.008Z,2.83
2023-05-03T03:03:56.086Z,3.10
2023-05-03T03:06:26.173Z,2.67
2023-05-03T03:08:55.571Z,2.73
2023-05-03T03:11:26.937Z,2.47
2023-05-03T03:13:54.918Z,2.33
2023-05-03T03:16:22.983Z,2.50
2023-05-03T03:18:51.163Z,2.23
2023-05-03T03:21:19.183Z,2.10
2023-05-03T03:23:47.138Z,2.57
2023-05-03T03:26:16.532Z,2.50
2023-05-03T03:28:44.474Z,2.20
2023-05-03T03:31:12.602Z,2.23
2023-05-03T03:33:40.736Z,2.40
2023-05-03T03:36:10.148Z,2.20
2023-05-03T03:38:38.132Z,2.00
2023-05-03T03:41:06.327Z,2.03
2023-05-03T03:43:35.691Z,2.40
2023-05-03T03:46:03.721Z,2.23
2023-05-03T03:48:31.912Z,1.83
2023-05-03T03:51:00.132Z,2.03
2023-05-03T03:53:28.278Z,2.07
2023-05-03T03:55:56.381Z,1.97
2023-05-03T03:58:27.073Z,2.10
2023-05-03T04:00:56.789Z,1.93
2023-05-03T04:03:24.786Z,1.67
2023-05-03T04:05:55.667Z,1.70
2023-05-03T04:08:23.919Z,2.00
2023-05-03T04:10:52.414Z,2.07
2023-05-03T04:13:20.437Z,2.07
2023-05-03T04:15:48.491Z,2.43
2023-05-03T04:18:17.863Z,2.30
2023-05-03T04:20:45.916Z,1.80
2023-05-03T04:23:13.941Z,1.80
2023-05-03T04:25:46.659Z,2.30
2023-05-03T04:28:15.074Z,1.93
2023-05-03T04:30:43.781Z,1.90
2023-05-03T04:33:11.831Z,2.00
2023-05-03T04:35:41.543Z,2.00
2023-05-03T04:38:10.044Z,2.23
2023-05-03T04:40:38.359Z,2.23
2023-05-03T04:43:06.416Z,2.03
2023-05-03T04:45:34.389Z,2.23
2023-05-03T04:48:05.531Z,2.20
2023-05-03T04:50:33.730Z,2.10
2023-05-03T04:53:04.239Z,2.27
2023-05-03T04:55:32.320Z,1.93
2023-05-03T04:58:00.665Z,2.00
2023-05-03T05:00:28.985Z,3.20
2023-05-03T05:02:58.755Z,1.90
2023-05-03T05:05:27.117Z,1.90
2023-05-03T05:07:55.188Z,2.10
2023-05-03T05:10:24.663Z,1.80
2023-05-03T05:12:53.105Z,1.63
2023-05-03T05:15:21.097Z,2.20
2023-05-03T05:17:50.577Z,2.17
2023-05-03T05:20:19.527Z,2.00
2023-05-03T05:22:47.528Z,1.90
2023-05-03T05:25:15.547Z,2.50
2023-05-03T05:27:45.811Z,2.00
2023-05-03T05:30:14.313Z,2.00
2023-05-03T05:32:42.396Z,2.10
2023-05-03T05:35:11.038Z,2.17
2023-05-03T05:37:38.968Z,2.53
2023-05-03T05:40:08.367Z,2.20
2023-05-03T05:42:36.383Z,2.00
2023-05-03T05:45:07.851Z,1.87
2023-05-03T05:47:35.881Z,2.10
2023-05-03T05:50:14.919Z,1.77
2023-05-03T05:52:46.029Z,2.27
2023-05-03T05:55:15.123Z,2.00
2023-05-03T05:57:43.061Z,1.90
2023-05-03T06:00:15.534Z,1.83
2023-05-03T06:02:44.021Z,1.70
2023-05-03T06:05:12.443Z,1.87
2023-05-03T06:07:40.688Z,1.50
2023-05-03T06:10:09.326Z,1.63
2023-05-03T06:12:37.616Z,1.70
2023-05-03T06:15:07.210Z,1.77
2023-05-03T06:17:36.754Z,1.80
2023-05-03T06:20:05.907Z,1.80
2023-05-03T06:22:34.093Z,1.60
2023-05-03T06:25:02.591Z,1.83
2023-05-03T06:27:30.896Z,1.83
2023-05-03T06:29:59.192Z,1.50
2023-05-03T06:32:27.565Z,1.90
2023-05-03T06:34:59.494Z,1.63
2023-05-03T06:37:27.796Z,1.63
2023-05-03T06:39:56.245Z,1.80
2023-05-03T06:42:24.224Z,1.80
2023-05-03T06:44:52.299Z,1.30
2023-05-03T06:47:21.608Z,1.33
2023-05-03T06:49:49.772Z,2.27
2023-05-03T06:52:19.477Z,2.20
2023-05-03T06:54:47.743Z,1.83
2023-05-03T06:57:15.770Z,1.70
2023-05-03T06:59:43.783Z,2.07
2023-05-03T07:02:12.144Z,1.77
2023-05-03T07:04:40.171Z,1.50
2023-05-03T07:07:08.112Z,1.60
2023-05-03T07:09:43.087Z,1.30
2023-05-03T07:12:12.410Z,1.13
2023-05-03T07:14:40.821Z,1.30
2023-05-03T07:17:09.021Z,1.33
2023-05-03T07:19:38.014Z,1.30
2023-05-03T07:22:05.998Z,1.10
2023-05-03T07:24:33.929Z,1.20
2023-05-03T07:27:03.353Z,1.10
2023-05-03T07:29:31.296Z,1.00
2023-05-03T07:31:59.506Z,1.30
2023-05-03T07:34:27.533Z,1.30
2023-05-03T07:36:55.745Z,1.00
2023-05-03T07:39:23.806Z,1.30
2023-05-03T07:41:51.852Z,1.80
2023-05-03T07:44:21.154Z,1.40
2023-05-03T07:46:49.298Z,1.30
2023-05-03T07:49:17.361Z,1.80
2023-05-03T07:51:45.467Z,1.33
2023-05-03T07:54:13.876Z,1.10
2023-05-03T07:56:41.855Z,1.30
2023-05-03T07:59:10.572Z,1.00
2023-05-03T08:01:40.351Z,1.10
2023-05-03T08:04:08.631Z,1.10
2023-05-03T08:06:38.571Z,1.70
2023-05-03T08:09:06.774Z,1.50
2023-05-03T08:11:34.927Z,1.30
2023-05-03T08:14:02.969Z,1.20
2023-05-03T08:16:31.113Z,1.33
2023-05-03T08:19:00.597Z,1.50
2023-05-03T08:21:28.643Z,1.53
2023-05-03T08:23:56.638Z,1.33
2023-05-03T08:26:29.797Z,1.50
2023-05-03T08:28:57.783Z,1.23
2023-05-03T08:31:26.443Z,1.60
2023-05-03T08:33:54.480Z,1.17
2023-05-03T08:36:23.974Z,1.40
2023-05-03T08:38:51.989Z,1.37
2023-05-03T08:41:25.826Z,1.43
2023-05-03T08:43:55.130Z,1.30
2023-05-03T08:46:23.477Z,1.20
2023-05-03T08:48:53.528Z,1.33
2023-05-03T08:51:24.503Z,1.50
2023-05-03T08:53:52.836Z,1.37
2023-05-03T08:56:30.679Z,1.43
2023-05-03T08:59:05.101Z,1.37
2023-05-03T09:01:33.396Z,1.50
2023-05-03T09:04:01.963Z,1.40
2023-05-03T09:06:33.216Z,1.43
2023-05-03T09:09:02.342Z,1.63
2023-05-03T09:11:31.804Z,1.80
2023-05-03T09:14:10.907Z,1.87
2023-05-03T09:16:39.922Z,1.90
2023-05-03T09:19:09.670Z,1.83
2023-05-03T09:21:41.619Z,1.60
2023-05-03T09:24:17.463Z,1.97
2023-05-03T09:26:47.033Z,2.40
2023-05-03T09:29:29.991Z,2.53
2023-05-03T09:32:02.988Z,2.30
2023-05-03T09:34:31.778Z,1.80
2023-05-03T09:37:01.387Z,2.93
2023-05-03T09:39:29.776Z,2.10
2023-05-03T09:41:57.790Z,1.70
2023-05-03T09:44:42.513Z,2.00
2023-05-03T09:47:11.716Z,2.00
2023-05-03T09:49:40.654Z,2.17
2023-05-03T09:52:09.977Z,2.03
2023-05-03T09:54:38.565Z,1.83
2023-05-03T09:57:09.353Z,2.10
2023-05-03T09:59:39.851Z,2.30
2023-05-03T10:02:09.097Z,2.20
2023-05-03T10:04:43.414Z,2.20
2023-05-03T10:07:19.315Z,2.40
2023-05-03T10:09:49.429Z,2.13
2023-05-03T10:12:18.708Z,2.57
2023-05-03T10:14:48.852Z,2.03
2023-05-03T10:17:29.224Z,2.40
2023-05-03T10:20:13.947Z,1.97
2023-05-03T10:23:11.600Z,1.93
2023-05-03T10:25:41.520Z,2.20
2023-05-03T10:28:10.841Z,2.37
2023-05-03T10:30:40.156Z,2.77
2023-05-03T10:33:31.333Z,2.33
2023-05-03T10:36:01.107Z,2.30
2023-05-03T10:38:32.689Z,2.60
2023-05-03T10:41:03.573Z,2.07
2023-05-03T10:43:47.159Z,2.60
2023-05-03T10:46:36.457Z,2.40
2023-05-03T10:49:21.288Z,2.40
2023-05-03T10:51:49.503Z,2.50
2023-05-03T10:54:19.624Z,2.50
2023-05-03T10:56:53.053Z,2.10
2023-05-03T10:59:21.983Z,2.60
2023-05-03T11:01:54.884Z,2.97
2023-05-03T11:04:39.273Z,2.63
2023-05-03T11:07:09.794Z,2.70
2023-05-03T11:09:39.524Z,2.50
2023-05-03T11:12:09.631Z,2.80
2023-05-03T11:14:39.685Z,2.80
2023-05-03T11:17:07.827Z,2.77
2023-05-03T11:19:35.906Z,2.83
2023-05-03T11:22:04.384Z,4.23
2023-05-03T11:24:32.420Z,3.03
2023-05-03T11:27:08.042Z,2.97
2023-05-03T11:29:37.918Z,3.17
2023-05-03T11:32:09.476Z,3.70
2023-05-03T11:34:38.278Z,2.73
2023-05-03T11:37:06.244Z,3.03
2023-05-03T11:39:34.202Z,2.80
2023-05-03T11:42:04.469Z,2.80
2023-05-03T11:44:32.836Z,3.10
2023-05-03T11:47:01.264Z,2.70
2023-05-03T11:49:29.580Z,3.37
2023-05-03T11:51:57.768Z,3.30
2023-05-03T11:54:27.991Z,3.07
2023-05-03T11:57:00.917Z,2.90
2023-05-03T11:59:38.106Z,3.33
2023-05-03T12:02:07.931Z,3.33
2023-05-03T12:04:41.696Z,3.60
2023-05-03T12:07:11.387Z,3.20
2023-05-03T12:09:40.907Z,2.67
2023-05-03T12:12:13.656Z,3.43
2023-05-03T12:15:03.562Z,3.23
2023-05-03T12:17:37.820Z,3.30
2023-05-03T12:21:04.994Z,3.63
2023-05-03T12:23:09.820Z,3.63
2023-05-03T12:25:40.585Z,2.87
2023-05-03T12:28:20.094Z,3.53
2023-05-03T12:30:53.207Z,3.57
2023-05-03T12:33:27.129Z,3.23
2023-05-03T12:35:59.120Z,4.00
2023-05-03T12:38:30.615Z,3.60
2023-05-03T12:40:59.777Z,3.58
2023-05-03T12:43:27.938Z,3.57
2023-05-03T12:48:33.020Z,3.30
2023-05-03T12:51:18.317Z,2.80
2023-05-03T12:53:48.218Z,3.03
2023-05-03T12:56:17.791Z,3.13
2023-05-03T13:02:19.242Z,3.70
2023-05-03T13:04:40.590Z,3.57
2023-05-03T13:07:00.590Z,2.83
2023-05-03T13:09:38.943Z,3.33
2023-05-03T13:12:20.482Z,3.40
2023-05-03T13:14:49.938Z,3.55
2023-05-03T13:17:22.648Z,3.00
2023-05-03T13:19:52.562Z,3.67
2023-05-03T13:22:20.852Z,3.33
2023-05-03T13:24:49.259Z,4.45
2023-05-03T13:27:17.989Z,3.40
2023-05-03T13:29:48.934Z,3.72
2023-05-03T13:32:18.956Z,3.10
2023-05-03T13:34:47.057Z,3.40
2023-05-03T13:37:18.382Z,3.10
2023-05-03T13:39:46.569Z,3.38
2023-05-03T13:42:14.843Z,2.88
2023-05-03T13:44:43.559Z,3.28
2023-05-03T13:47:11.664Z,3.40
2023-05-03T13:49:41.354Z,2.92
2023-05-03T13:52:09.416Z,3.10
2023-05-03T13:54:37.881Z,3.15
2023-05-03T13:57:06.071Z,3.28
2023-05-03T13:59:33.976Z,3.28
2023-05-03T14:02:02.169Z,3.00
2023-05-03T14:04:30.783Z,2.92
2023-05-03T14:07:02.818Z,3.03
2023-05-03T14:09:31.244Z,3.33
2023-05-03T14:11:59.226Z,3.10
2023-05-03T14:14:28.293Z,3.45
2023-05-03T14:16:56.297Z,3.08
2023-05-03T14:19:24.321Z,3.08
2023-05-03T14:21:53.013Z,3.40
2023-05-03T14:24:22.353Z,3.35
2023-05-03T14:26:50.368Z,3.42
2023-05-03T14:29:18.357Z,3.15
2023-05-03T14:31:46.464Z,3.15
2023-05-03T14:34:14.709Z,3.22
2023-05-03T14:36:44.071Z,3.03
2023-05-03T14:39:14.466Z,3.30
2023-05-03T14:41:46.558Z,3.17
2023-05-03T14:44:14.562Z,3.40
2023-05-03T14:46:42.848Z,3.38
2023-05-03T14:49:10.838Z,3.33
2023-05-03T14:51:38.769Z,3.58
2023-05-03T14:54:06.859Z,3.42
2023-05-03T14:56:35.020Z,2.72
2023-05-03T14:59:04.452Z,3.45
2023-05-03T15:01:32.507Z,3.25
2023-05-03T15:04:00.510Z,3.42
2023-05-03T15:06:30.926Z,3.30
2023-05-03T15:08:59.764Z,3.10
2023-05-03T15:11:28.949Z,2.88
2023-05-03T15:13:57.042Z,3.35
2023-05-03T15:16:26.784Z,2.95
2023-05-03T15:18:54.879Z,3.15
2023-05-03T15:21:24.130Z,4.03
2023-05-03T15:23:53.961Z,3.10
2023-05-03T15:26:24.435Z,3.05
2023-05-03T15:28:52.671Z,3.20
2023-05-03T15:31:20.802Z,3.28
2023-05-03T15:33:50.156Z,3.25
2023-05-03T15:36:18.128Z,3.45
2023-05-03T15:38:46.943Z,2.70
2023-05-03T15:41:15.288Z,3.15
2023-05-03T15:43:43.946Z,2.78
2023-05-03T15:46:12.029Z,2.90
2023-05-03T15:48:40.367Z,2.65
2023-05-03T15:51:09.622Z,3.42
2023-05-03T15:53:37.732Z,3.55
2023-05-03T15:56:06.318Z,2.72
2023-05-03T15:58:34.364Z,2.80
2023-05-03T16:01:05.117Z,2.97
2023-05-03T16:03:33.439Z,2.70
2023-05-03T16:06:01.695Z,3.00
2023-05-03T16:08:31.578Z,2.92
2023-05-03T16:10:59.646Z,3.08
2023-05-03T16:13:27.813Z,3.13
2023-05-03T16:15:56.978Z,3.47
2023-05-03T16:18:28.205Z,3.22
2023-05-03T16:20:56.236Z,3.05
2023-05-03T16:23:24.248Z,3.13
2023-05-03T16:25:53.746Z,3.38
2023-05-03T16:28:21.780Z,3.00
2023-05-03T16:30:49.758Z,3.00
2023-05-03T16:33:18.523Z,3.40
2023-05-03T16:35:46.548Z,2.90
2023-05-03T16:38:14.468Z,3.05
2023-05-03T16:40:43.602Z,3.05
2023-05-03T16:43:12.951Z,2.92
2023-05-03T16:45:41.096Z,2.95
2023-05-03T16:48:10.936Z,3.22
2023-05-03T16:50:38.951Z,3.05
2023-05-03T16:53:06.906Z,3.47
2023-05-03T16:55:34.879Z,3.20
2023-05-03T16:58:03.145Z,3.03
2023-05-03T17:00:32.841Z,3.30
2023-05-03T17:03:00.927Z,3.50
2023-05-03T17:05:33.354Z,3.25
2023-05-03T17:08:01.990Z,3.10
2023-05-03T17:10:31.434Z,3.63
2023-05-03T17:13:01.120Z,3.13
2023-05-03T17:15:29.407Z,2.83
2023-05-03T17:17:58.979Z,3.08
2023-05-03T17:20:27.176Z,3.13
2023-05-03T17:22:55.430Z,3.40
2023-05-03T17:25:23.459Z,3.25
2023-05-03T17:27:51.972Z,3.28
2023-05-03T17:30:21.258Z,2.97
2023-05-03T17:32:49.824Z,3.33
2023-05-03T17:35:19.655Z,3.63
2023-05-03T17:37:48.306Z,3.40
2023-05-03T17:40:16.381Z,3.60
2023-05-03T17:42:44.441Z,3.30
2023-05-03T17:45:13.917Z,4.00
2023-05-03T17:47:41.976Z,3.00
2023-05-03T17:50:12.879Z,3.78
2023-05-03T17:52:42.838Z,3.30
2023-05-03T17:55:12.349Z,3.72
2023-05-03T17:57:40.545Z,3.45
2023-05-03T18:00:11.286Z,3.58
2023-05-03T18:02:39.616Z,3.58
2023-05-03T18:05:07.957Z,3.40
2023-05-03T18:07:35.996Z,3.47
2023-05-03T18:10:05.976Z,3.58
2023-05-03T18:12:34.228Z,4.00
2023-05-03T18:15:02.498Z,3.88
2023-05-03T18:17:36.243Z,4.40
2023-05-03T18:20:38.138Z,3.78
2023-05-03T18:23:06.621Z,5.00
2023-05-03T18:25:36.231Z,4.25
2023-05-03T18:28:04.251Z,3.95
2023-05-03T18:30:32.615Z,4.38
2023-05-03T18:33:00.775Z,8.98
2023-05-03T18:35:29.000Z,5.95
2023-05-03T18:37:57.038Z,3.80
2023-05-03T18:40:25.537Z,3.90
2023-05-03T18:42:54.867Z,4.07
2023-05-03T18:45:22.986Z,3.78
2023-05-03T18:47:51.053Z,4.10
2023-05-03T18:50:19.172Z,4.47
2023-05-03T18:52:48.635Z,3.97
2023-05-03T18:55:16.721Z,3.83
2023-05-03T18:57:44.666Z,3.45
2023-05-03T19:00:18.231Z,4.18
2023-05-03T19:02:46.288Z,4.13
2023-05-03T19:05:14.306Z,3.33
2023-05-03T19:07:43.588Z,4.05
2023-05-03T19:10:12.088Z,4.10
2023-05-03T19:12:40.773Z,3.90
2023-05-03T19:15:09.869Z,4.18
2023-05-03T19:17:40.413Z,4.47
2023-05-03T19:20:10.573Z,4.22
2023-05-03T19:22:38.680Z,4.20
2023-05-03T19:25:07.812Z,3.97
2023-05-03T19:27:35.769Z,3.80
2023-05-03T19:30:04.199Z,4.32
2023-05-03T19:32:35.210Z,4.20
2023-05-03T19:35:05.421Z,4.22
2023-05-03T19:37:33.399Z,3.97
2023-05-03T19:40:01.369Z,4.40
2023-05-03T19:42:29.438Z,4.53
2023-05-03T19:44:57.515Z,4.20
2023-05-03T19:47:25.844Z,4.37
2023-05-03T19:49:54.092Z,4.30
2023-05-03T19:52:23.409Z,4.50
2023-05-03T19:54:51.519Z,4.47
2023-05-03T19:57:19.476Z,4.20
2023-05-03T19:59:49.030Z,4.77
2023-05-03T20:02:18.479Z,4.63
2023-05-03T20:04:46.528Z,4.50
2023-05-03T20:07:14.485Z,4.47
2023-05-03T20:09:43.878Z,4.87
2023-05-03T20:12:12.085Z,4.63
2023-05-03T20:14:40.131Z,4.60
2023-05-03T20:17:08.251Z,4.45
2023-05-03T20:19:36.348Z,4.50
2023-05-03T20:22:04.689Z,4.60
2023-05-03T20:24:32.851Z,4.40
2023-05-03T20:27:02.565Z,4.80
2023-05-03T20:29:30.854Z,4.70
2023-05-03T20:31:58.847Z,5.00
2023-05-03T20:34:27.001Z,4.87
2023-05-03T20:36:55.297Z,4.77
2023-05-03T20:39:23.280Z,5.03
2023-05-03T20:41:51.260Z,4.10
2023-05-03T20:44:20.585Z,5.17
2023-05-03T20:46:48.729Z,5.20
2023-05-03T20:49:17.180Z,4.25
2023-05-03T20:51:45.238Z,4.97
2023-05-03T20:54:13.252Z,5.13
2023-05-03T20:56:41.270Z,5.33
2023-05-03T20:59:09.223Z,4.82
2023-05-03T21:01:41.138Z,4.80
2023-05-03T21:04:09.272Z,5.07
2023-05-03T21:06:38.398Z,4.63
2023-05-03T21:09:06.948Z,4.13
2023-05-03T21:11:34.920Z,4.80
2023-05-03T21:14:03.008Z,4.83
2023-05-03T21:16:31.209Z,4.90
2023-05-03T21:19:01.411Z,4.37
2023-05-03T21:21:30.166Z,4.90
2023-05-03T21:23:58.693Z,4.10
2023-05-03T21:26:27.076Z,4.87
2023-05-03T21:28:55.533Z,5.43
2023-05-03T21:31:23.606Z,4.53
2023-05-03T21:33:51.708Z,4.70
2023-05-03T21:36:21.409Z,5.10
2023-05-03T21:38:52.616Z,5.17
2023-05-03T21:41:20.962Z,4.80
2023-05-03T21:43:50.747Z,4.90
2023-05-03T21:46:18.933Z,4.93
2023-05-03T21:48:46.984Z,4.80
2023-05-03T21:51:21.645Z,4.63
2023-05-03T21:53:50.168Z,5.23
2023-05-03T21:56:18.236Z,4.90
2023-05-03T21:58:46.308Z,5.00
2023-05-03T22:01:17.033Z,5.20
2023-05-03T22:03:45.175Z,4.77
2023-05-03T22:06:13.310Z,4.30
2023-05-03T22:08:42.914Z,4.80
2023-05-03T22:11:11.474Z,4.47
2023-05-03T22:13:50.300Z,4.60
2023-05-03T22:16:27.394Z,4.97
2023-05-03T22:18:55.606Z,4.40
2023-05-03T22:21:23.732Z,4.03
2023-05-03T22:23:53.650Z,4.60
2023-05-03T22:26:21.705Z,4.87
2023-05-03T22:28:49.816Z,4.17
2023-05-03T22:31:18.055Z,4.30
2023-05-03T22:33:47.180Z,4.37
2023-05-03T22:36:15.662Z,4.30
2023-05-03T22:38:44.018Z,4.60
2023-05-03T22:41:13.546Z,3.73
2023-05-03T22:43:41.592Z,4.40
2023-05-03T22:46:09.637Z,4.40
2023-05-03T22:48:37.657Z,4.83
2023-05-03T22:51:06.217Z,4.80
2023-05-03T22:53:35.787Z,4.57
2023-05-03T22:56:05.529Z,4.70
2023-05-03T22:58:35.189Z,4.27
2023-05-03T23:01:08.051Z,4.10
2023-05-03T23:03:36.348Z,4.80
2023-05-03T23:06:04.666Z,4.40
2023-05-03T23:08:32.673Z,4.23
2023-05-03T23:11:00.660Z,4.37
2023-05-03T23:13:28.704Z,4.90
2023-05-03T23:15:58.228Z,4.93
2023-05-03T23:18:26.714Z,4.77
2023-05-03T23:20:55.384Z,4.37
2023-05-03T23:23:23.739Z,4.40
2023-05-03T23:25:52.157Z,4.47
2023-05-03T23:28:20.757Z,4.60
2023-05-03T23:30:49.238Z,5.03
2023-05-03T23:33:18.980Z,4.53
2023-05-03T23:35:48.727Z,5.40
2023-05-03T23:38:16.723Z,5.00
2023-05-03T23:40:44.696Z,5.00
2023-05-03T23:43:12.615Z,5.03
2023-05-03T23:45:40.568Z,5.00
2023-05-03T23:48:08.639Z,5.30
2023-05-03T23:50:38.134Z,4.93
2023-05-03T23:53:07.196Z,5.50
2023-05-03T23:55:35.160Z,5.00
2023-05-03T23:58:03.126Z,5.27
